sensor_id;sensor_type;location;lat;lon;timestamp;temperature;humidity
58513;DHT22;44302;47.914;10.642;2022-10-20T07:52:52;12.50;99.90
58513;DHT22;44302;47.914;10.642;2022-10-20T07:55:18;12.70;99.90
58513;DHT22;44302;47.914;10.642;2022-10-20T07:57:44;12.80;99.90
58513;DHT22;44302;47.914;10.642;2022-10-20T08:00:11;12.90;99.90
58513;DHT22;44302;47.914;10.642;2022-10-20T08:02:36;13.00;99.90
58513;DHT22;44302;47.914;10.642;2022-10-20T08:05:05;13.10;99.90
58513;DHT22;44302;47.914;10.642;2022-10-20T08:07:32;13.20;99.90
58513;DHT22;44302;47.914;10.642;2022-10-20T08:09:58;13.30;99.90
58513;DHT22;44302;47.914;10.642;2022-10-20T08:12:24;13.60;99.90
58513;DHT22;44302;47.914;10.642;2022-10-20T08:14:49;13.90;99.90
58513;DHT22;44302;47.914;10.642;2022-10-20T08:17:16;14.40;99.90
58513;DHT22;44302;47.914;10.642;2022-10-20T08:19:42;15.10;99.90
58513;DHT22;44302;47.914;10.642;2022-10-20T08:22:08;15.70;99.90
58513;DHT22;44302;47.914;10.642;2022-10-20T08:24:34;15.90;99.90
58513;DHT22;44302;47.914;10.642;2022-10-20T08:27:00;15.90;99.90
58513;DHT22;44302;47.914;10.642;2022-10-20T08:29:26;16.20;99.90
58513;DHT22;44302;47.914;10.642;2022-10-20T08:31:52;16.60;99.90
58513;DHT22;44302;47.914;10.642;2022-10-20T08:34:17;17.10;99.90
58513;DHT22;44302;47.914;10.642;2022-10-20T08:36:43;17.50;99.90
58513;DHT22;44302;47.914;10.642;2022-10-20T08:39:08;17.50;99.90
58513;DHT22;44302;47.914;10.642;2022-10-20T08:41:37;17.10;99.90
58513;DHT22;44302;47.914;10.642;2022-10-20T08:44:05;16.90;99.90
58513;DHT22;44302;47.914;10.642;2022-10-20T08:46:35;16.70;99.90
58513;DHT22;44302;47.914;10.642;2022-10-20T08:49:02;16.60;99.90
58513;DHT22;44302;47.914;10.642;2022-10-20T08:51:34;16.70;99.90
58513;DHT22;44302;47.914;10.642;2022-10-20T08:54:03;17.20;99.90
58513;DHT22;44302;47.914;10.642;2022-10-20T08:56:32;17.90;99.90
58513;DHT22;44302;47.914;10.642;2022-10-20T08:58:59;18.60;99.90
58513;DHT22;44302;47.914;10.642;2022-10-20T09:01:28;19.10;99.90
58513;DHT22;44302;47.914;10.642;2022-10-20T09:04:16;19.00;99.90
58513;DHT22;44302;47.914;10.642;2022-10-20T09:06:44;18.50;99.90
58513;DHT22;44302;47.914;10.642;2022-10-20T09:09:17;17.80;99.90
58513;DHT22;44302;47.914;10.642;2022-10-20T09:11:44;17.60;99.90
58513;DHT22;44302;47.914;10.642;2022-10-20T09:14:11;18.10;99.90
58513;DHT22;44302;47.914;10.642;2022-10-20T09:16:39;18.60;99.90
58513;DHT22;44302;47.914;10.642;2022-10-20T09:19:13;18.80;99.90
58513;DHT22;44302;47.914;10.642;2022-10-20T09:21:40;18.90;99.90
58513;DHT22;44302;47.914;10.642;2022-10-20T09:24:06;19.40;99.90
58513;DHT22;44302;47.914;10.642;2022-10-20T09:26:44;19.50;99.90
58513;DHT22;44302;47.914;10.642;2022-10-20T09:29:15;19.20;99.90
58513;DHT22;44302;47.914;10.642;2022-10-20T09:31:46;19.00;99.90
58513;DHT22;44302;47.914;10.642;2022-10-20T09:34:30;18.80;99.90
58513;DHT22;44302;47.914;10.642;2022-10-20T09:37:11;18.70;99.90
58513;DHT22;44302;47.914;10.642;2022-10-20T09:42:33;18.60;99.90
58513;DHT22;44302;47.914;10.642;2022-10-20T09:45:18;18.50;99.90
58513;DHT22;44302;47.914;10.642;2022-10-20T09:47:49;18.40;99.90
58513;DHT22;44302;47.914;10.642;2022-10-20T09:50:29;18.60;99.90
58513;DHT22;44302;47.914;10.642;2022-10-20T09:52:57;18.90;99.90
58513;DHT22;44302;47.914;10.642;2022-10-20T09:55:30;19.40;99.90
58513;DHT22;44302;47.914;10.642;2022-10-20T09:57:59;19.70;99.90
58513;DHT22;44302;47.914;10.642;2022-10-20T10:00:30;19.80;99.90
58513;DHT22;44302;47.914;10.642;2022-10-20T10:03:16;19.80;99.90
58513;DHT22;44302;47.914;10.642;2022-10-20T10:05:58;19.70;99.90
58513;DHT22;44302;47.914;10.642;2022-10-20T10:08:39;19.90;99.90
58513;DHT22;44302;47.914;10.642;2022-10-20T10:11:17;20.20;99.90
58513;DHT22;44302;47.914;10.642;2022-10-20T10:13:46;20.50;99.90
58513;DHT22;44302;47.914;10.642;2022-10-20T10:16:14;20.70;99.90
58513;DHT22;44302;47.914;10.642;2022-10-20T10:18:43;20.90;99.90
58513;DHT22;44302;47.914;10.642;2022-10-20T10:21:11;20.90;99.90
58513;DHT22;44302;47.914;10.642;2022-10-20T10:23:53;20.90;99.90
58513;DHT22;44302;47.914;10.642;2022-10-20T10:29:19;20.70;99.90
58513;DHT22;44302;47.914;10.642;2022-10-20T10:32:24;20.40;99.90
58513;DHT22;44302;47.914;10.642;2022-10-20T10:37:32;20.50;99.90
58513;DHT22;44302;47.914;10.642;2022-10-20T10:39:58;20.60;99.90
58513;DHT22;44302;47.914;10.642;2022-10-20T10:42:40;20.50;99.90
58513;DHT22;44302;47.914;10.642;2022-10-20T10:56:15;19.80;99.90
58513;DHT22;44302;47.914;10.642;2022-10-20T10:59:19;19.50;99.90
58513;DHT22;44302;47.914;10.642;2022-10-20T11:07:45;19.10;99.90
58513;DHT22;44302;47.914;10.642;2022-10-20T11:10:27;19.10;99.90
58513;DHT22;44302;47.914;10.642;2022-10-20T11:16:43;19.00;99.90
58513;DHT22;44302;47.914;10.642;2022-10-20T11:22:17;18.80;99.90
58513;DHT22;44302;47.914;10.642;2022-10-20T11:27:34;18.60;99.90
58513;DHT22;44302;47.914;10.642;2022-10-20T11:30:15;18.50;99.90
58513;DHT22;44302;47.914;10.642;2022-10-20T11:35:33;18.30;99.90
58513;DHT22;44302;47.914;10.642;2022-10-20T11:41:05;18.10;99.90
58513;DHT22;44302;47.914;10.642;2022-10-20T11:46:19;18.40;99.90
58513;DHT22;44302;47.914;10.642;2022-10-20T11:48:51;18.60;99.90
58513;DHT22;44302;47.914;10.642;2022-10-20T12:02:54;18.70;99.90
58513;DHT22;44302;47.914;10.642;2022-10-20T12:24:39;17.60;99.90
58513;DHT22;44302;47.914;10.642;2022-10-20T12:34:56;17.30;99.90
58513;DHT22;44302;47.914;10.642;2022-10-20T12:39:49;17.20;99.90
58513;DHT22;44302;47.914;10.642;2022-10-20T12:42:36;17.20;99.90
58513;DHT22;44302;47.914;10.642;2022-10-20T12:45:06;17.20;99.90
58513;DHT22;44302;47.914;10.642;2022-10-20T12:47:34;17.30;99.90
58513;DHT22;44302;47.914;10.642;2022-10-20T12:52:45;17.20;99.90
58513;DHT22;44302;47.914;10.642;2022-10-20T12:55:29;17.20;99.90
58513;DHT22;44302;47.914;10.642;2022-10-20T13:14:16;16.50;99.90
58513;DHT22;44302;47.914;10.642;2022-10-20T13:19:55;16.40;99.90
58513;DHT22;44302;47.914;10.642;2022-10-20T13:22:47;16.40;99.90
58513;DHT22;44302;47.914;10.642;2022-10-20T13:36:01;16.40;99.90
58513;DHT22;44302;47.914;10.642;2022-10-20T13:38:51;16.60;99.90
58513;DHT22;44302;47.914;10.642;2022-10-20T13:52:21;17.80;99.90
58513;DHT22;44302;47.914;10.642;2022-10-20T13:54:48;17.90;99.90
58513;DHT22;44302;47.914;10.642;2022-10-20T13:57:25;17.90;99.90
58513;DHT22;44302;47.914;10.642;2022-10-20T14:00:21;17.90;99.90
58513;DHT22;44302;47.914;10.642;2022-10-20T14:03:40;17.80;99.90
58513;DHT22;44302;47.914;10.642;2022-10-20T14:05:42;17.60;99.90
58513;DHT22;44302;47.914;10.642;2022-10-20T14:08:10;17.50;99.90
58513;DHT22;44302;47.914;10.642;2022-10-20T14:10:52;17.40;99.90
58513;DHT22;44302;47.914;10.642;2022-10-20T14:13:22;17.30;99.90
58513;DHT22;44302;47.914;10.642;2022-10-20T14:15:54;17.20;99.90
58513;DHT22;44302;47.914;10.642;2022-10-20T14:18:26;17.00;99.90
58513;DHT22;44302;47.914;10.642;2022-10-20T14:21:00;16.90;99.90
58513;DHT22;44302;47.914;10.642;2022-10-20T14:23:32;16.90;99.90
58513;DHT22;44302;47.914;10.642;2022-10-20T14:26:00;16.80;99.90
58513;DHT22;44302;47.914;10.642;2022-10-20T14:28:30;16.70;99.90
58513;DHT22;44302;47.914;10.642;2022-10-20T14:30:57;16.60;99.90
58513;DHT22;44302;47.914;10.642;2022-10-20T14:33:24;16.50;99.90
58513;DHT22;44302;47.914;10.642;2022-10-20T14:35:53;16.40;99.90
58513;DHT22;44302;47.914;10.642;2022-10-20T14:38:26;16.40;99.90
58513;DHT22;44302;47.914;10.642;2022-10-20T14:40:56;16.40;99.90
58513;DHT22;44302;47.914;10.642;2022-10-20T14:46:04;16.30;99.90
58513;DHT22;44302;47.914;10.642;2022-10-20T14:48:36;16.30;99.90
58513;DHT22;44302;47.914;10.642;2022-10-20T14:51:33;16.30;99.90
58513;DHT22;44302;47.914;10.642;2022-10-20T14:56:45;16.30;99.90
58513;DHT22;44302;47.914;10.642;2022-10-20T14:59:17;16.30;99.90
58513;DHT22;44302;47.914;10.642;2022-10-20T15:02:03;16.30;99.90
58513;DHT22;44302;47.914;10.642;2022-10-20T15:04:47;16.30;99.90
58513;DHT22;44302;47.914;10.642;2022-10-20T15:07:25;16.30;99.90
58513;DHT22;44302;47.914;10.642;2022-10-20T15:09:56;16.20;99.90
58513;DHT22;44302;47.914;10.642;2022-10-20T15:15:07;16.20;99.90
58513;DHT22;44302;47.914;10.642;2022-10-20T15:17:45;16.20;99.90
58513;DHT22;44302;47.914;10.642;2022-10-20T15:23:14;16.10;99.90
58513;DHT22;44302;47.914;10.642;2022-10-20T15:28:41;16.00;99.90
58513;DHT22;44302;47.914;10.642;2022-10-20T15:31:18;16.00;99.90
58513;DHT22;44302;47.914;10.642;2022-10-20T15:33:45;16.00;99.90
58513;DHT22;44302;47.914;10.642;2022-10-20T15:36:22;16.00;99.90
58513;DHT22;44302;47.914;10.642;2022-10-20T15:38:50;15.90;99.90
58513;DHT22;44302;47.914;10.642;2022-10-20T15:41:28;15.90;99.90
58513;DHT22;44302;47.914;10.642;2022-10-20T15:43:55;15.90;99.90
58513;DHT22;44302;47.914;10.642;2022-10-20T15:46:21;15.80;99.90
58513;DHT22;44302;47.914;10.642;2022-10-20T15:48:47;15.70;99.90
58513;DHT22;44302;47.914;10.642;2022-10-20T15:51:19;15.60;99.90
58513;DHT22;44302;47.914;10.642;2022-10-20T15:53:46;15.60;99.90
58513;DHT22;44302;47.914;10.642;2022-10-20T15:56:14;15.50;99.90
58513;DHT22;44302;47.914;10.642;2022-10-20T15:58:40;15.50;99.90
58513;DHT22;44302;47.914;10.642;2022-10-20T16:01:05;15.40;99.90
58513;DHT22;44302;47.914;10.642;2022-10-20T16:03:31;15.30;99.90
58513;DHT22;44302;47.914;10.642;2022-10-20T16:05:57;15.30;99.90
58513;DHT22;44302;47.914;10.642;2022-10-20T16:08:22;15.30;99.90
58513;DHT22;44302;47.914;10.642;2022-10-20T16:10:48;15.20;99.90
58513;DHT22;44302;47.914;10.642;2022-10-20T16:13:14;15.20;99.90
58513;DHT22;44302;47.914;10.642;2022-10-20T16:15:42;15.20;99.90
58513;DHT22;44302;47.914;10.642;2022-10-20T16:18:09;15.20;99.90
58513;DHT22;44302;47.914;10.642;2022-10-20T16:20:35;15.10;99.90
58513;DHT22;44302;47.914;10.642;2022-10-20T16:23:00;15.10;99.90
58513;DHT22;44302;47.914;10.642;2022-10-20T16:25:26;15.10;99.90
58513;DHT22;44302;47.914;10.642;2022-10-20T16:27:52;15.00;99.90
58513;DHT22;44302;47.914;10.642;2022-10-20T16:30:18;15.00;99.90
58513;DHT22;44302;47.914;10.642;2022-10-20T16:32:44;15.00;99.90
58513;DHT22;44302;47.914;10.642;2022-10-20T16:35:10;15.00;99.90
58513;DHT22;44302;47.914;10.642;2022-10-20T16:37:35;15.00;99.90
58513;DHT22;44302;47.914;10.642;2022-10-20T16:40:01;14.90;99.90
58513;DHT22;44302;47.914;10.642;2022-10-20T16:42:28;14.90;99.90
58513;DHT22;44302;47.914;10.642;2022-10-20T16:44:57;14.90;99.90
58513;DHT22;44302;47.914;10.642;2022-10-20T16:47:24;14.90;99.90
58513;DHT22;44302;47.914;10.642;2022-10-20T16:49:50;14.80;99.90
58513;DHT22;44302;47.914;10.642;2022-10-20T16:52:16;14.80;99.90
58513;DHT22;44302;47.914;10.642;2022-10-20T16:54:41;14.70;99.90
58513;DHT22;44302;47.914;10.642;2022-10-20T16:57:07;14.70;99.90
58513;DHT22;44302;47.914;10.642;2022-10-20T16:59:36;14.60;99.90
58513;DHT22;44302;47.914;10.642;2022-10-20T17:02:02;14.50;99.90
58513;DHT22;44302;47.914;10.642;2022-10-20T17:04:27;14.50;99.90
58513;DHT22;44302;47.914;10.642;2022-10-20T17:06:53;14.50;99.90
58513;DHT22;44302;47.914;10.642;2022-10-20T17:09:19;14.40;99.90
58513;DHT22;44302;47.914;10.642;2022-10-20T17:11:45;14.40;99.90
58513;DHT22;44302;47.914;10.642;2022-10-20T17:14:10;14.30;99.90
58513;DHT22;44302;47.914;10.642;2022-10-20T17:16:36;14.30;99.90
58513;DHT22;44302;47.914;10.642;2022-10-20T17:19:07;14.30;99.90
58513;DHT22;44302;47.914;10.642;2022-10-20T17:21:33;14.20;99.90
58513;DHT22;44302;47.914;10.642;2022-10-20T17:24:00;14.10;99.90
58513;DHT22;44302;47.914;10.642;2022-10-20T17:26:27;14.10;99.90
58513;DHT22;44302;47.914;10.642;2022-10-20T17:28:59;14.10;99.90
58513;DHT22;44302;47.914;10.642;2022-10-20T17:31:25;14.00;99.90
58513;DHT22;44302;47.914;10.642;2022-10-20T17:33:51;14.00;99.90
58513;DHT22;44302;47.914;10.642;2022-10-20T17:36:17;14.00;99.90
58513;DHT22;44302;47.914;10.642;2022-10-20T17:38:45;13.90;99.90
58513;DHT22;44302;47.914;10.642;2022-10-20T17:41:14;13.90;99.90
58513;DHT22;44302;47.914;10.642;2022-10-20T17:43:40;13.70;99.90
58513;DHT22;44302;47.914;10.642;2022-10-20T17:46:09;13.80;99.90
58513;DHT22;44302;47.914;10.642;2022-10-20T17:48:36;13.70;99.90
58513;DHT22;44302;47.914;10.642;2022-10-20T17:51:15;13.70;99.90
58513;DHT22;44302;47.914;10.642;2022-10-20T17:53:42;13.60;99.90
58513;DHT22;44302;47.914;10.642;2022-10-20T17:56:34;13.50;99.90
58513;DHT22;44302;47.914;10.642;2022-10-20T17:59:01;13.50;99.90
58513;DHT22;44302;47.914;10.642;2022-10-20T18:03:57;13.30;99.90
58513;DHT22;44302;47.914;10.642;2022-10-20T18:06:24;13.30;99.90
58513;DHT22;44302;47.914;10.642;2022-10-20T18:08:53;13.20;99.90
58513;DHT22;44302;47.914;10.642;2022-10-20T18:11:24;13.20;99.90
58513;DHT22;44302;47.914;10.642;2022-10-20T18:13:50;13.20;99.90
58513;DHT22;44302;47.914;10.642;2022-10-20T18:16:18;13.10;99.90
58513;DHT22;44302;47.914;10.642;2022-10-20T18:18:44;13.10;99.90
58513;DHT22;44302;47.914;10.642;2022-10-20T18:21:11;13.00;99.90
58513;DHT22;44302;47.914;10.642;2022-10-20T18:23:38;13.00;99.90
58513;DHT22;44302;47.914;10.642;2022-10-20T18:26:11;12.90;99.90
58513;DHT22;44302;47.914;10.642;2022-10-20T18:28:37;12.80;99.90
58513;DHT22;44302;47.914;10.642;2022-10-20T18:31:08;12.90;99.90
58513;DHT22;44302;47.914;10.642;2022-10-20T18:33:34;12.90;99.90
58513;DHT22;44302;47.914;10.642;2022-10-20T18:36:04;12.90;99.90
58513;DHT22;44302;47.914;10.642;2022-10-20T18:38:32;12.90;99.90
58513;DHT22;44302;47.914;10.642;2022-10-20T18:43:34;12.80;99.90
58513;DHT22;44302;47.914;10.642;2022-10-20T18:46:01;12.80;99.90
58513;DHT22;44302;47.914;10.642;2022-10-20T18:48:28;12.80;99.90
58513;DHT22;44302;47.914;10.642;2022-10-20T18:50:55;12.80;99.90
58513;DHT22;44302;47.914;10.642;2022-10-20T18:53:22;12.80;99.90
58513;DHT22;44302;47.914;10.642;2022-10-20T18:56:01;12.80;99.90
58513;DHT22;44302;47.914;10.642;2022-10-20T18:58:29;12.60;99.90
58513;DHT22;44302;47.914;10.642;2022-10-20T19:00:59;12.80;99.90
58513;DHT22;44302;47.914;10.642;2022-10-20T19:03:26;12.80;99.90
58513;DHT22;44302;47.914;10.642;2022-10-20T19:06:16;12.80;99.90
58513;DHT22;44302;47.914;10.642;2022-10-20T19:08:42;12.80;99.90
58513;DHT22;44302;47.914;10.642;2022-10-20T19:11:11;12.70;99.90
58513;DHT22;44302;47.914;10.642;2022-10-20T19:13:38;12.80;99.90
58513;DHT22;44302;47.914;10.642;2022-10-20T19:16:13;12.80;99.90
58513;DHT22;44302;47.914;10.642;2022-10-20T19:18:43;12.80;99.90
58513;DHT22;44302;47.914;10.642;2022-10-20T19:21:09;12.80;99.90
58513;DHT22;44302;47.914;10.642;2022-10-20T19:23:37;12.80;99.90
58513;DHT22;44302;47.914;10.642;2022-10-20T19:28:39;12.70;99.90
58513;DHT22;44302;47.914;10.642;2022-10-20T19:31:20;12.60;99.90
58513;DHT22;44302;47.914;10.642;2022-10-20T19:33:47;12.60;99.90
58513;DHT22;44302;47.914;10.642;2022-10-20T19:36:13;12.60;99.90
58513;DHT22;44302;47.914;10.642;2022-10-20T19:38:39;12.60;99.90
58513;DHT22;44302;47.914;10.642;2022-10-20T19:41:05;12.60;99.90
58513;DHT22;44302;47.914;10.642;2022-10-20T19:43:35;12.60;99.90
58513;DHT22;44302;47.914;10.642;2022-10-20T19:46:03;12.60;99.90
58513;DHT22;44302;47.914;10.642;2022-10-20T19:48:29;12.50;99.90
58513;DHT22;44302;47.914;10.642;2022-10-20T19:50:54;12.50;99.90
58513;DHT22;44302;47.914;10.642;2022-10-20T19:53:20;12.50;99.90
58513;DHT22;44302;47.914;10.642;2022-10-20T19:55:47;12.50;99.90
58513;DHT22;44302;47.914;10.642;2022-10-20T19:58:13;12.50;99.90
58513;DHT22;44302;47.914;10.642;2022-10-20T20:00:43;12.60;99.90
58513;DHT22;44302;47.914;10.642;2022-10-20T20:03:09;12.60;99.90
58513;DHT22;44302;47.914;10.642;2022-10-20T20:05:35;12.50;99.90
58513;DHT22;44302;47.914;10.642;2022-10-20T20:08:01;12.50;99.90
58513;DHT22;44302;47.914;10.642;2022-10-20T20:10:26;12.50;99.90
58513;DHT22;44302;47.914;10.642;2022-10-20T20:12:52;12.60;99.90
58513;DHT22;44302;47.914;10.642;2022-10-20T20:15:18;12.50;99.90
58513;DHT22;44302;47.914;10.642;2022-10-20T20:17:43;12.60;99.90
58513;DHT22;44302;47.914;10.642;2022-10-20T20:20:09;12.50;99.90
58513;DHT22;44302;47.914;10.642;2022-10-20T20:22:35;12.60;99.90
58513;DHT22;44302;47.914;10.642;2022-10-20T20:25:00;12.50;99.90
58513;DHT22;44302;47.914;10.642;2022-10-20T20:27:26;12.50;99.90
58513;DHT22;44302;47.914;10.642;2022-10-20T20:29:52;12.50;99.90
58513;DHT22;44302;47.914;10.642;2022-10-20T20:32:17;12.50;99.90
58513;DHT22;44302;47.914;10.642;2022-10-20T20:34:43;12.50;99.90
58513;DHT22;44302;47.914;10.642;2022-10-20T20:37:09;12.60;99.90
58513;DHT22;44302;47.914;10.642;2022-10-20T20:39:34;12.60;99.90
58513;DHT22;44302;47.914;10.642;2022-10-20T20:42:00;12.60;99.90
58513;DHT22;44302;47.914;10.642;2022-10-20T20:44:26;12.70;99.90
58513;DHT22;44302;47.914;10.642;2022-10-20T20:46:51;12.70;99.90
58513;DHT22;44302;47.914;10.642;2022-10-20T20:49:18;12.80;99.90
58513;DHT22;44302;47.914;10.642;2022-10-20T20:51:43;12.80;99.90
58513;DHT22;44302;47.914;10.642;2022-10-20T20:54:09;12.80;99.90
58513;DHT22;44302;47.914;10.642;2022-10-20T20:56:35;12.80;99.90
58513;DHT22;44302;47.914;10.642;2022-10-20T20:59:01;12.90;99.90
58513;DHT22;44302;47.914;10.642;2022-10-20T21:01:28;12.90;99.90
58513;DHT22;44302;47.914;10.642;2022-10-20T21:03:58;12.90;99.90
58513;DHT22;44302;47.914;10.642;2022-10-20T21:06:25;12.90;99.90
58513;DHT22;44302;47.914;10.642;2022-10-20T21:08:51;12.90;99.90
58513;DHT22;44302;47.914;10.642;2022-10-20T21:11:24;12.90;99.90
58513;DHT22;44302;47.914;10.642;2022-10-20T21:13:52;12.90;99.90
58513;DHT22;44302;47.914;10.642;2022-10-20T21:16:23;13.00;99.90
58513;DHT22;44302;47.914;10.642;2022-10-20T21:18:51;12.90;99.90
58513;DHT22;44302;47.914;10.642;2022-10-20T21:21:19;12.90;99.90
58513;DHT22;44302;47.914;10.642;2022-10-20T21:23:46;12.80;99.90
58513;DHT22;44302;47.914;10.642;2022-10-20T21:26:14;12.80;99.90
58513;DHT22;44302;47.914;10.642;2022-10-20T21:28:41;12.80;99.90
58513;DHT22;44302;47.914;10.642;2022-10-20T21:31:09;12.70;99.90
58513;DHT22;44302;47.914;10.642;2022-10-20T21:33:35;12.70;99.90
58513;DHT22;44302;47.914;10.642;2022-10-20T21:36:12;12.70;99.90
58513;DHT22;44302;47.914;10.642;2022-10-20T21:38:40;12.70;99.90
58513;DHT22;44302;47.914;10.642;2022-10-20T21:41:10;12.70;99.90
58513;DHT22;44302;47.914;10.642;2022-10-20T21:43:40;12.70;99.90
58513;DHT22;44302;47.914;10.642;2022-10-20T21:48:35;12.80;99.90
